Nashville, NC (27856)

8:27 AM EDT on September 04, 2015 (GMT -0400)
Nashville - Birchwood | | Change Station
CLOSE
Current Station
Personal Weather Station
Location: Nashville, NC
Elevation: 223 ft
Nearby Weather Stations

Elev 223 ft 35.96 °N, 77.94 °W | Updated 1 second ago

Clear
Clear
72.1 °F
Feels Like 72.1 °F
N
0.0
Wind Variable Wind from North
Gusts 1.0 mph

Today
High -- | Low -- °F
--% Chance of Precip.
Yesterday
High -- | Low -- °F
Precip. -- in
6:45 AM 7:35 PM
Waning Gibbous, 60% visible
Pressure 29.97 in
Visibility 3.0 miles
Clouds Clear
Dew Point 70 °F
Humidity 94%
Rainfall 0.00 in
Snow Depth Not available.
UV 1 out of 12
Pollen 8.50 out of 12
Air Quality Not available.
Flu Activity Not available.
SPECI KRWI 041201Z AUTO 00000KT 3SM BR CLR 23/22 A2997 RMK AO2 T02330222
Pressure 29.97 in
Visibility 3.0 miles
Clouds Clear
Dew Point 70 °F
Humidity 94%
Rainfall 0.00 in
Snow Depth Not available.
UV 1 out of 12
Pollen 8.50 out of 12
Air Quality Not available.
Flu Activity Not available.
SPECI KRWI 041201Z AUTO 00000KT 3SM BR CLR 23/22 A2997 RMK AO2 T02330222

10-Day Weather Forecast

×

Almanac

Astronomy

Sep. 04, 2015 Rise Set
Actual Time
Civil Twilight
Nautical Twilight
Astronomical Twilight
Moon
Length of Visible Light
Length of Day
Tomorrow will be .
, % of the Moon is Illuminated

Today's Extremes

State Highs State Lows

Community

WunderPhotos

Upload Photos

1,852,160 photos uploaded!

WunderBlogs® & News

Nearby

Air Quality

  Air Quality AQ Index Pollutant
Not available.

Snow Depth

Station Depth Elevation

Earthquake Activity

City Distance Mag. Time & Date
Minimum magnitude displayed is 2.5.

Coastal Water Temperatures

Place Temperature

Stations

Nearby Weather Stations

Station Location Temp. Windchill Dew Point Humidity Wind Precip. Elev Updated Type